sensor_id;sensor_type;location;lat;lon;timestamp;temperature;humidity
65854;DHT22;52627;48.838;2.402;2022-08-20T00:01:05;20.04;62.38
65854;DHT22;52627;48.838;2.402;2022-08-20T00:03:38;20.02;62.43
65854;DHT22;52627;48.838;2.402;2022-08-20T00:06:15;20.01;62.57
65854;DHT22;52627;48.838;2.402;2022-08-20T00:08:48;20.00;62.66
65854;DHT22;52627;48.838;2.402;2022-08-20T00:11:22;19.99;62.72
65854;DHT22;52627;48.838;2.402;2022-08-20T00:13:53;19.96;62.81
65854;DHT22;52627;48.838;2.402;2022-08-20T00:16:24;19.95;62.92
65854;DHT22;52627;48.838;2.402;2022-08-20T00:18:59;19.93;63.00
65854;DHT22;52627;48.838;2.402;2022-08-20T00:21:27;19.91;63.07
65854;DHT22;52627;48.838;2.402;2022-08-20T00:23:57;19.90;63.08
65854;DHT22;52627;48.838;2.402;2022-08-20T00:26:25;19.88;63.03
65854;DHT22;52627;48.838;2.402;2022-08-20T00:28:53;19.85;63.00
65854;DHT22;52627;48.838;2.402;2022-08-20T00:31:22;19.84;63.03
65854;DHT22;52627;48.838;2.402;2022-08-20T00:33:50;19.82;63.09
65854;DHT22;52627;48.838;2.402;2022-08-20T00:36:19;19.80;63.18
65854;DHT22;52627;48.838;2.402;2022-08-20T00:38:58;19.77;63.21
65854;DHT22;52627;48.838;2.402;2022-08-20T00:41:26;19.75;63.30
65854;DHT22;52627;48.838;2.402;2022-08-20T00:44:05;19.73;63.36
65854;DHT22;52627;48.838;2.402;2022-08-20T00:46:36;19.71;63.45
65854;DHT22;52627;48.838;2.402;2022-08-20T00:49:06;19.69;63.50
65854;DHT22;52627;48.838;2.402;2022-08-20T00:54:08;19.68;63.62
65854;DHT22;52627;48.838;2.402;2022-08-20T00:56:45;19.63;63.69
65854;DHT22;52627;48.838;2.402;2022-08-20T00:59:20;19.63;63.78
65854;DHT22;52627;48.838;2.402;2022-08-20T01:01:52;19.62;63.80
65854;DHT22;52627;48.838;2.402;2022-08-20T01:04:23;19.61;63.91
65854;DHT22;52627;48.838;2.402;2022-08-20T01:06:53;19.59;64.02
65854;DHT22;52627;48.838;2.402;2022-08-20T01:09:21;19.58;64.08
65854;DHT22;52627;48.838;2.402;2022-08-20T01:12:10;19.57;64.14
65854;DHT22;52627;48.838;2.402;2022-08-20T01:14:42;19.56;64.21
65854;DHT22;52627;48.838;2.402;2022-08-20T01:17:14;19.54;64.28
65854;DHT22;52627;48.838;2.402;2022-08-20T01:19:56;19.54;64.35
65854;DHT22;52627;48.838;2.402;2022-08-20T01:22:49;19.54;64.41
65854;DHT22;52627;48.838;2.402;2022-08-20T01:31:12;19.45;64.65
65854;DHT22;52627;48.838;2.402;2022-08-20T01:33:47;19.44;64.69
65854;DHT22;52627;48.838;2.402;2022-08-20T01:36:17;19.44;64.80
65854;DHT22;52627;48.838;2.402;2022-08-20T01:38:57;19.43;64.86
65854;DHT22;52627;48.838;2.402;2022-08-20T01:44:16;19.40;65.01
65854;DHT22;52627;48.838;2.402;2022-08-20T01:46:46;19.40;65.11
65854;DHT22;52627;48.838;2.402;2022-08-20T01:49:29;19.38;65.16
65854;DHT22;52627;48.838;2.402;2022-08-20T01:52:01;19.37;65.28
65854;DHT22;52627;48.838;2.402;2022-08-20T01:54:34;19.35;65.37
65854;DHT22;52627;48.838;2.402;2022-08-20T01:57:09;19.33;65.42
65854;DHT22;52627;48.838;2.402;2022-08-20T01:59:43;19.33;65.53
65854;DHT22;52627;48.838;2.402;2022-08-20T02:02:11;19.32;65.63
65854;DHT22;52627;48.838;2.402;2022-08-20T02:04:40;19.31;65.74
65854;DHT22;52627;48.838;2.402;2022-08-20T02:07:12;19.29;65.80
65854;DHT22;52627;48.838;2.402;2022-08-20T02:09:44;19.27;65.86
65854;DHT22;52627;48.838;2.402;2022-08-20T02:12:12;19.26;65.97
65854;DHT22;52627;48.838;2.402;2022-08-20T02:14:41;19.25;66.03
65854;DHT22;52627;48.838;2.402;2022-08-20T02:17:14;19.24;66.13
65854;DHT22;52627;48.838;2.402;2022-08-20T02:19:47;19.21;66.23
65854;DHT22;52627;48.838;2.402;2022-08-20T02:24:53;19.16;66.38
65854;DHT22;52627;48.838;2.402;2022-08-20T02:27:20;19.13;66.46
65854;DHT22;52627;48.838;2.402;2022-08-20T02:29:51;19.09;66.49
65854;DHT22;52627;48.838;2.402;2022-08-20T02:32:19;19.06;66.51
65854;DHT22;52627;48.838;2.402;2022-08-20T02:35:00;19.05;66.55
65854;DHT22;52627;48.838;2.402;2022-08-20T02:37:31;19.02;66.60
65854;DHT22;52627;48.838;2.402;2022-08-20T02:39:59;19.02;66.62
65854;DHT22;52627;48.838;2.402;2022-08-20T02:42:27;18.99;66.70
65854;DHT22;52627;48.838;2.402;2022-08-20T02:44:54;18.97;66.76
65854;DHT22;52627;48.838;2.402;2022-08-20T02:47:24;18.92;66.78
65854;DHT22;52627;48.838;2.402;2022-08-20T02:49:53;18.89;66.83
65854;DHT22;52627;48.838;2.402;2022-08-20T02:52:21;18.87;66.90
65854;DHT22;52627;48.838;2.402;2022-08-20T02:54:49;18.86;66.92
65854;DHT22;52627;48.838;2.402;2022-08-20T02:57:17;18.85;67.00
65854;DHT22;52627;48.838;2.402;2022-08-20T02:59:49;18.86;67.00
65854;DHT22;52627;48.838;2.402;2022-08-20T03:02:20;18.84;67.02
65854;DHT22;52627;48.838;2.402;2022-08-20T03:04:47;18.82;67.07
65854;DHT22;52627;48.838;2.402;2022-08-20T03:07:15;18.81;67.10
65854;DHT22;52627;48.838;2.402;2022-08-20T03:09:43;18.79;67.19
65854;DHT22;52627;48.838;2.402;2022-08-20T03:12:11;18.77;67.29
65854;DHT22;52627;48.838;2.402;2022-08-20T03:14:38;18.75;67.30
65854;DHT22;52627;48.838;2.402;2022-08-20T03:17:06;18.75;67.37
65854;DHT22;52627;48.838;2.402;2022-08-20T03:19:33;18.74;67.40
65854;DHT22;52627;48.838;2.402;2022-08-20T03:22:01;18.74;67.47
65854;DHT22;52627;48.838;2.402;2022-08-20T03:24:28;18.73;67.51
65854;DHT22;52627;48.838;2.402;2022-08-20T03:26:56;18.74;67.60
65854;DHT22;52627;48.838;2.402;2022-08-20T03:29:24;18.72;67.62
65854;DHT22;52627;48.838;2.402;2022-08-20T03:31:52;18.70;67.70
65854;DHT22;52627;48.838;2.402;2022-08-20T03:34:19;18.70;67.76
65854;DHT22;52627;48.838;2.402;2022-08-20T03:36:47;18.69;67.81
65854;DHT22;52627;48.838;2.402;2022-08-20T03:39:14;18.68;67.89
65854;DHT22;52627;48.838;2.402;2022-08-20T03:41:42;18.65;67.96
65854;DHT22;52627;48.838;2.402;2022-08-20T03:44:09;18.62;68.06
65854;DHT22;52627;48.838;2.402;2022-08-20T03:46:37;18.62;68.12
65854;DHT22;52627;48.838;2.402;2022-08-20T03:49:05;18.60;68.20
65854;DHT22;52627;48.838;2.402;2022-08-20T03:51:33;18.56;68.28
65854;DHT22;52627;48.838;2.402;2022-08-20T03:54:20;18.52;68.30
65854;DHT22;52627;48.838;2.402;2022-08-20T03:56:47;18.51;68.38
65854;DHT22;52627;48.838;2.402;2022-08-20T03:59:15;18.50;68.44
65854;DHT22;52627;48.838;2.402;2022-08-20T04:01:42;18.48;68.53
65854;DHT22;52627;48.838;2.402;2022-08-20T04:04:13;18.47;68.62
65854;DHT22;52627;48.838;2.402;2022-08-20T04:06:41;18.48;68.64
65854;DHT22;52627;48.838;2.402;2022-08-20T04:09:10;18.46;68.69
65854;DHT22;52627;48.838;2.402;2022-08-20T04:11:39;18.43;68.77
65854;DHT22;52627;48.838;2.402;2022-08-20T04:14:09;18.40;68.86
65854;DHT22;52627;48.838;2.402;2022-08-20T04:16:43;18.40;68.91
65854;DHT22;52627;48.838;2.402;2022-08-20T04:19:13;18.37;68.96
65854;DHT22;52627;48.838;2.402;2022-08-20T04:21:41;18.37;69.01
65854;DHT22;52627;48.838;2.402;2022-08-20T04:24:08;18.35;69.04
65854;DHT22;52627;48.838;2.402;2022-08-20T04:26:56;18.34;69.10
65854;DHT22;52627;48.838;2.402;2022-08-20T04:29:25;18.34;69.13
65854;DHT22;52627;48.838;2.402;2022-08-20T04:31:59;18.32;69.17
65854;DHT22;52627;48.838;2.402;2022-08-20T04:34:31;18.30;69.20
65854;DHT22;52627;48.838;2.402;2022-08-20T04:37:00;18.30;69.22
65854;DHT22;52627;48.838;2.402;2022-08-20T04:39:28;18.29;69.27
65854;DHT22;52627;48.838;2.402;2022-08-20T04:41:58;18.27;69.30
65854;DHT22;52627;48.838;2.402;2022-08-20T04:44:26;18.25;69.30
65854;DHT22;52627;48.838;2.402;2022-08-20T04:46:54;18.22;69.39
65854;DHT22;52627;48.838;2.402;2022-08-20T04:49:21;18.21;69.40
65854;DHT22;52627;48.838;2.402;2022-08-20T04:51:53;18.21;69.42
65854;DHT22;52627;48.838;2.402;2022-08-20T04:54:21;18.21;69.43
65854;DHT22;52627;48.838;2.402;2022-08-20T04:56:48;18.19;69.48
65854;DHT22;52627;48.838;2.402;2022-08-20T04:59:16;18.18;69.50
65854;DHT22;52627;48.838;2.402;2022-08-20T05:01:43;18.16;69.51
65854;DHT22;52627;48.838;2.402;2022-08-20T05:04:12;18.14;69.60
65854;DHT22;52627;48.838;2.402;2022-08-20T05:06:39;18.12;69.60
65854;DHT22;52627;48.838;2.402;2022-08-20T05:09:07;18.11;69.60
65854;DHT22;52627;48.838;2.402;2022-08-20T05:11:34;18.08;69.69
65854;DHT22;52627;48.838;2.402;2022-08-20T05:14:03;18.04;69.76
65854;DHT22;52627;48.838;2.402;2022-08-20T05:16:36;18.00;69.79
65854;DHT22;52627;48.838;2.402;2022-08-20T05:19:09;18.00;69.79
65854;DHT22;52627;48.838;2.402;2022-08-20T05:21:38;18.00;69.78
65854;DHT22;52627;48.838;2.402;2022-08-20T05:24:07;18.01;69.79
65854;DHT22;52627;48.838;2.402;2022-08-20T05:26:36;18.01;69.79
65854;DHT22;52627;48.838;2.402;2022-08-20T05:29:04;18.00;69.78
65854;DHT22;52627;48.838;2.402;2022-08-20T05:31:33;18.02;69.80
65854;DHT22;52627;48.838;2.402;2022-08-20T05:34:02;18.02;69.79
65854;DHT22;52627;48.838;2.402;2022-08-20T05:36:46;18.01;69.78
65854;DHT22;52627;48.838;2.402;2022-08-20T05:39:17;18.02;69.76
65854;DHT22;52627;48.838;2.402;2022-08-20T05:41:46;18.00;69.76
65854;DHT22;52627;48.838;2.402;2022-08-20T05:44:18;18.02;69.74
65854;DHT22;52627;48.838;2.402;2022-08-20T05:46:46;18.03;69.74
65854;DHT22;52627;48.838;2.402;2022-08-20T05:49:15;18.05;69.73
65854;DHT22;52627;48.838;2.402;2022-08-20T05:51:47;18.06;69.70
65854;DHT22;52627;48.838;2.402;2022-08-20T05:54:17;18.06;69.70
65854;DHT22;52627;48.838;2.402;2022-08-20T05:56:45;18.07;69.72
65854;DHT22;52627;48.838;2.402;2022-08-20T05:59:12;18.09;69.72
65854;DHT22;52627;48.838;2.402;2022-08-20T06:01:40;18.12;69.78
65854;DHT22;52627;48.838;2.402;2022-08-20T06:04:09;18.16;69.80
65854;DHT22;52627;48.838;2.402;2022-08-20T06:07:02;18.22;69.79
65854;DHT22;52627;48.838;2.402;2022-08-20T06:09:32;18.24;69.79
65854;DHT22;52627;48.838;2.402;2022-08-20T06:12:02;18.28;69.73
65854;DHT22;52627;48.838;2.402;2022-08-20T06:14:34;18.31;69.70
65854;DHT22;52627;48.838;2.402;2022-08-20T06:17:05;18.35;69.70
65854;DHT22;52627;48.838;2.402;2022-08-20T06:19:42;18.39;69.68
65854;DHT22;52627;48.838;2.402;2022-08-20T06:22:13;18.42;69.64
65854;DHT22;52627;48.838;2.402;2022-08-20T06:24:49;18.44;69.61
65854;DHT22;52627;48.838;2.402;2022-08-20T06:27:17;18.45;69.60
65854;DHT22;52627;48.838;2.402;2022-08-20T06:29:45;18.50;69.59
65854;DHT22;52627;48.838;2.402;2022-08-20T06:32:13;18.56;69.52
65854;DHT22;52627;48.838;2.402;2022-08-20T06:34:40;18.60;69.48
65854;DHT22;52627;48.838;2.402;2022-08-20T06:37:21;18.63;69.40
65854;DHT22;52627;48.838;2.402;2022-08-20T06:42:51;18.73;69.30
65854;DHT22;52627;48.838;2.402;2022-08-20T06:45:23;18.78;69.23
65854;DHT22;52627;48.838;2.402;2022-08-20T06:47:54;18.83;69.18
65854;DHT22;52627;48.838;2.402;2022-08-20T06:50:39;18.89;69.09
65854;DHT22;52627;48.838;2.402;2022-08-20T06:53:15;18.94;69.00
65854;DHT22;52627;48.838;2.402;2022-08-20T06:55:51;19.01;68.89
65854;DHT22;52627;48.838;2.402;2022-08-20T06:58:21;19.08;68.81
65854;DHT22;52627;48.838;2.402;2022-08-20T07:01:07;19.16;68.71
65854;DHT22;52627;48.838;2.402;2022-08-20T07:03:38;19.24;68.62
65854;DHT22;52627;48.838;2.402;2022-08-20T07:06:20;19.32;68.52
65854;DHT22;52627;48.838;2.402;2022-08-20T07:08:47;19.43;68.42
65854;DHT22;52627;48.838;2.402;2022-08-20T07:11:15;19.56;68.23
65854;DHT22;52627;48.838;2.402;2022-08-20T07:13:42;19.72;68.06
65854;DHT22;52627;48.838;2.402;2022-08-20T07:16:11;19.89;67.90
65854;DHT22;52627;48.838;2.402;2022-08-20T07:18:39;20.08;67.73
65854;DHT22;52627;48.838;2.402;2022-08-20T07:21:07;20.27;67.50
65854;DHT22;52627;48.838;2.402;2022-08-20T07:23:34;20.50;67.27
65854;DHT22;52627;48.838;2.402;2022-08-20T07:26:02;20.76;67.05
65854;DHT22;52627;48.838;2.402;2022-08-20T07:28:30;21.03;66.62
65854;DHT22;52627;48.838;2.402;2022-08-20T07:30:58;21.27;66.25
65854;DHT22;52627;48.838;2.402;2022-08-20T07:33:46;21.57;65.89
65854;DHT22;52627;48.838;2.402;2022-08-20T07:36:16;21.90;65.53
65854;DHT22;52627;48.838;2.402;2022-08-20T07:38:44;22.21;64.89
65854;DHT22;52627;48.838;2.402;2022-08-20T07:41:13;22.47;64.17
65854;DHT22;52627;48.838;2.402;2022-08-20T07:43:42;22.68;63.67
65854;DHT22;52627;48.838;2.402;2022-08-20T07:46:15;23.01;63.39
65854;DHT22;52627;48.838;2.402;2022-08-20T07:48:47;23.44;62.93
65854;DHT22;52627;48.838;2.402;2022-08-20T07:51:17;23.90;62.35
65854;DHT22;52627;48.838;2.402;2022-08-20T07:53:49;24.48;61.81
65854;DHT22;52627;48.838;2.402;2022-08-20T07:56:19;25.00;61.07
65854;DHT22;52627;48.838;2.402;2022-08-20T07:58:52;25.58;60.57
65854;DHT22;52627;48.838;2.402;2022-08-20T08:01:26;26.14;59.31
65854;DHT22;52627;48.838;2.402;2022-08-20T08:03:57;26.55;58.64
65854;DHT22;52627;48.838;2.402;2022-08-20T08:06:27;27.01;57.85
65854;DHT22;52627;48.838;2.402;2022-08-20T08:09:02;27.43;56.71
65854;DHT22;52627;48.838;2.402;2022-08-20T08:11:35;27.77;56.03
65854;DHT22;52627;48.838;2.402;2022-08-20T08:14:07;28.23;55.14
65854;DHT22;52627;48.838;2.402;2022-08-20T08:16:36;28.54;54.06
65854;DHT22;52627;48.838;2.402;2022-08-20T08:19:04;28.88;53.36
65854;DHT22;52627;48.838;2.402;2022-08-20T08:21:35;29.19;52.25
65854;DHT22;52627;48.838;2.402;2022-08-20T08:24:02;29.34;51.34
65854;DHT22;52627;48.838;2.402;2022-08-20T08:26:30;29.66;50.74
65854;DHT22;52627;48.838;2.402;2022-08-20T08:28:58;29.76;49.05
65854;DHT22;52627;48.838;2.402;2022-08-20T08:31:25;29.75;48.42
65854;DHT22;52627;48.838;2.402;2022-08-20T08:33:53;29.76;47.79
65854;DHT22;52627;48.838;2.402;2022-08-20T08:36:21;29.92;47.26
65854;DHT22;52627;48.838;2.402;2022-08-20T08:38:49;30.14;46.80
65854;DHT22;52627;48.838;2.402;2022-08-20T08:41:30;30.54;46.29
65854;DHT22;52627;48.838;2.402;2022-08-20T08:44:08;30.93;45.34
65854;DHT22;52627;48.838;2.402;2022-08-20T08:46:44;31.19;44.70
65854;DHT22;52627;48.838;2.402;2022-08-20T08:49:16;31.47;44.34
65854;DHT22;52627;48.838;2.402;2022-08-20T08:51:58;31.82;43.21
65854;DHT22;52627;48.838;2.402;2022-08-20T08:54:33;32.03;42.91
65854;DHT22;52627;48.838;2.402;2022-08-20T08:57:02;32.28;42.21
65854;DHT22;52627;48.838;2.402;2022-08-20T08:59:29;32.50;41.83
65854;DHT22;52627;48.838;2.402;2022-08-20T09:02:17;32.92;41.37
65854;DHT22;52627;48.838;2.402;2022-08-20T09:04:53;33.09;40.17
65854;DHT22;52627;48.838;2.402;2022-08-20T09:07:25;33.24;40.07
65854;DHT22;52627;48.838;2.402;2022-08-20T09:09:57;33.40;39.42
65854;DHT22;52627;48.838;2.402;2022-08-20T09:12:26;33.08;39.14
65854;DHT22;52627;48.838;2.402;2022-08-20T09:14:53;33.01;38.53
65854;DHT22;52627;48.838;2.402;2022-08-20T09:17:21;32.74;37.98
65854;DHT22;52627;48.838;2.402;2022-08-20T09:19:49;32.47;37.77
65854;DHT22;52627;48.838;2.402;2022-08-20T09:22:19;32.54;37.40
65854;DHT22;52627;48.838;2.402;2022-08-20T09:24:49;32.69;37.20
65854;DHT22;52627;48.838;2.402;2022-08-20T09:27:16;32.93;36.98
65854;DHT22;52627;48.838;2.402;2022-08-20T09:29:44;32.91;36.67
65854;DHT22;52627;48.838;2.402;2022-08-20T09:32:17;32.56;36.39
65854;DHT22;52627;48.838;2.402;2022-08-20T09:34:48;32.04;36.25
65854;DHT22;52627;48.838;2.402;2022-08-20T09:37:23;31.79;36.16
65854;DHT22;52627;48.838;2.402;2022-08-20T09:39:52;31.53;36.21
65854;DHT22;52627;48.838;2.402;2022-08-20T09:42:24;31.54;35.88
65854;DHT22;52627;48.838;2.402;2022-08-20T09:44:58;31.48;35.98
65854;DHT22;52627;48.838;2.402;2022-08-20T09:47:26;31.77;36.10
65854;DHT22;52627;48.838;2.402;2022-08-20T09:49:54;32.08;35.71
65854;DHT22;52627;48.838;2.402;2022-08-20T09:52:23;32.26;35.73
65854;DHT22;52627;48.838;2.402;2022-08-20T09:54:59;32.55;35.47
65854;DHT22;52627;48.838;2.402;2022-08-20T09:57:31;32.73;35.29
65854;DHT22;52627;48.838;2.402;2022-08-20T09:59:59;32.96;34.98
65854;DHT22;52627;48.838;2.402;2022-08-20T10:02:32;33.11;34.64
65854;DHT22;52627;48.838;2.402;2022-08-20T10:05:00;33.24;34.43
65854;DHT22;52627;48.838;2.402;2022-08-20T10:07:27;33.39;34.28
65854;DHT22;52627;48.838;2.402;2022-08-20T10:09:55;33.53;34.02
65854;DHT22;52627;48.838;2.402;2022-08-20T10:12:22;33.59;33.91
65854;DHT22;52627;48.838;2.402;2022-08-20T10:14:51;33.43;33.71
65854;DHT22;52627;48.838;2.402;2022-08-20T10:17:21;33.41;33.58
65854;DHT22;52627;48.838;2.402;2022-08-20T10:19:49;33.52;33.22
65854;DHT22;52627;48.838;2.402;2022-08-20T10:22:16;33.62;33.15
65854;DHT22;52627;48.838;2.402;2022-08-20T10:24:43;33.63;32.95
65854;DHT22;52627;48.838;2.402;2022-08-20T10:27:11;33.75;32.78
65854;DHT22;52627;48.838;2.402;2022-08-20T10:29:38;33.77;32.59
65854;DHT22;52627;48.838;2.402;2022-08-20T10:32:13;33.71;32.63
65854;DHT22;52627;48.838;2.402;2022-08-20T10:34:43;33.39;32.44
65854;DHT22;52627;48.838;2.402;2022-08-20T10:37:16;32.83;32.37
65854;DHT22;52627;48.838;2.402;2022-08-20T10:39:46;32.40;32.38
65854;DHT22;52627;48.838;2.402;2022-08-20T10:42:14;32.20;32.38
65854;DHT22;52627;48.838;2.402;2022-08-20T10:44:42;32.18;32.29
65854;DHT22;52627;48.838;2.402;2022-08-20T10:47:13;32.22;32.28
65854;DHT22;52627;48.838;2.402;2022-08-20T10:49:46;32.37;32.23
65854;DHT22;52627;48.838;2.402;2022-08-20T10:52:15;32.49;32.16
65854;DHT22;52627;48.838;2.402;2022-08-20T10:54:43;32.62;32.20
65854;DHT22;52627;48.838;2.402;2022-08-20T10:57:13;32.54;32.13
65854;DHT22;52627;48.838;2.402;2022-08-20T10:59:45;32.10;32.10
65854;DHT22;52627;48.838;2.402;2022-08-20T11:02:14;31.81;32.24
65854;DHT22;52627;48.838;2.402;2022-08-20T11:04:42;31.63;32.05
65854;DHT22;52627;48.838;2.402;2022-08-20T11:07:11;31.61;32.25
65854;DHT22;52627;48.838;2.402;2022-08-20T11:09:47;31.69;32.38
65854;DHT22;52627;48.838;2.402;2022-08-20T11:12:16;31.74;32.07
65854;DHT22;52627;48.838;2.402;2022-08-20T11:14:46;31.73;32.03
65854;DHT22;52627;48.838;2.402;2022-08-20T11:20:03;31.73;31.74
65854;DHT22;52627;48.838;2.402;2022-08-20T11:22:33;31.77;31.76
65854;DHT22;52627;48.838;2.402;2022-08-20T11:25:02;31.82;31.78
65854;DHT22;52627;48.838;2.402;2022-08-20T11:27:33;31.93;32.03
65854;DHT22;52627;48.838;2.402;2022-08-20T11:30:06;32.08;31.96
65854;DHT22;52627;48.838;2.402;2022-08-20T11:32:38;32.23;32.10
65854;DHT22;52627;48.838;2.402;2022-08-20T11:35:05;32.13;31.95
65854;DHT22;52627;48.838;2.402;2022-08-20T11:37:54;32.01;31.86
65854;DHT22;52627;48.838;2.402;2022-08-20T11:40:25;32.00;31.81
65854;DHT22;52627;48.838;2.402;2022-08-20T11:42:56;31.95;31.76
65854;DHT22;52627;48.838;2.402;2022-08-20T11:45:45;31.93;31.82
65854;DHT22;52627;48.838;2.402;2022-08-20T11:48:19;31.92;31.87
65854;DHT22;52627;48.838;2.402;2022-08-20T11:50:47;31.81;31.80
65854;DHT22;52627;48.838;2.402;2022-08-20T11:53:16;31.75;31.84
65854;DHT22;52627;48.838;2.402;2022-08-20T11:55:43;31.79;31.88
65854;DHT22;52627;48.838;2.402;2022-08-20T11:58:11;31.80;31.73
65854;DHT22;52627;48.838;2.402;2022-08-20T12:00:39;31.72;31.72
65854;DHT22;52627;48.838;2.402;2022-08-20T12:03:07;31.50;31.43
65854;DHT22;52627;48.838;2.402;2022-08-20T12:05:42;31.37;31.63
65854;DHT22;52627;48.838;2.402;2022-08-20T12:08:12;31.38;31.65
65854;DHT22;52627;48.838;2.402;2022-08-20T12:10:57;31.36;31.63
65854;DHT22;52627;48.838;2.402;2022-08-20T12:13:28;31.37;31.60
65854;DHT22;52627;48.838;2.402;2022-08-20T12:16:15;31.24;31.84
65854;DHT22;52627;48.838;2.402;2022-08-20T12:18:45;31.26;32.06
65854;DHT22;52627;48.838;2.402;2022-08-20T12:21:13;31.28;32.06
65854;DHT22;52627;48.838;2.402;2022-08-20T12:23:41;31.30;32.06
65854;DHT22;52627;48.838;2.402;2022-08-20T12:26:08;31.31;32.10
65854;DHT22;52627;48.838;2.402;2022-08-20T12:28:36;31.39;32.14
65854;DHT22;52627;48.838;2.402;2022-08-20T12:31:03;31.46;32.14
65854;DHT22;52627;48.838;2.402;2022-08-20T12:33:31;31.42;31.86
65854;DHT22;52627;48.838;2.402;2022-08-20T12:35:58;31.26;31.81
65854;DHT22;52627;48.838;2.402;2022-08-20T12:38:26;31.29;31.95
65854;DHT22;52627;48.838;2.402;2022-08-20T12:40:54;31.31;31.82
65854;DHT22;52627;48.838;2.402;2022-08-20T12:43:21;31.26;31.79
65854;DHT22;52627;48.838;2.402;2022-08-20T12:45:51;31.28;31.86
65854;DHT22;52627;48.838;2.402;2022-08-20T12:48:19;31.30;31.70
65854;DHT22;52627;48.838;2.402;2022-08-20T12:50:47;31.25;31.66
65854;DHT22;52627;48.838;2.402;2022-08-20T12:53:16;31.30;31.69
65854;DHT22;52627;48.838;2.402;2022-08-20T12:55:44;31.35;31.64
65854;DHT22;52627;48.838;2.402;2022-08-20T12:58:12;31.41;31.66
65854;DHT22;52627;48.838;2.402;2022-08-20T13:00:41;31.51;31.68
65854;DHT22;52627;48.838;2.402;2022-08-20T13:03:17;31.64;31.65
65854;DHT22;52627;48.838;2.402;2022-08-20T13:05:47;31.72;31.53
65854;DHT22;52627;48.838;2.402;2022-08-20T13:08:15;31.80;31.55
65854;DHT22;52627;48.838;2.402;2022-08-20T13:10:45;31.83;31.48
65854;DHT22;52627;48.838;2.402;2022-08-20T13:13:14;31.93;31.63
65854;DHT22;52627;48.838;2.402;2022-08-20T13:15:47;32.08;31.51
65854;DHT22;52627;48.838;2.402;2022-08-20T13:18:17;32.19;31.42
65854;DHT22;52627;48.838;2.402;2022-08-20T13:20:46;32.29;31.27
65854;DHT22;52627;48.838;2.402;2022-08-20T13:23:14;32.37;31.20
65854;DHT22;52627;48.838;2.402;2022-08-20T13:25:42;32.46;30.98
65854;DHT22;52627;48.838;2.402;2022-08-20T13:28:09;32.35;30.72
65854;DHT22;52627;48.838;2.402;2022-08-20T13:30:37;32.17;30.51
65854;DHT22;52627;48.838;2.402;2022-08-20T13:33:05;31.89;30.52
65854;DHT22;52627;48.838;2.402;2022-08-20T13:35:33;31.67;30.67
65854;DHT22;52627;48.838;2.402;2022-08-20T13:38:00;31.38;30.83
65854;DHT22;52627;48.838;2.402;2022-08-20T13:40:28;31.09;31.02
65854;DHT22;52627;48.838;2.402;2022-08-20T13:42:55;30.86;31.19
65854;DHT22;52627;48.838;2.402;2022-08-20T13:45:23;30.56;31.34
65854;DHT22;52627;48.838;2.402;2022-08-20T13:47:52;30.27;31.49
65854;DHT22;52627;48.838;2.402;2022-08-20T13:50:22;30.01;31.74
65854;DHT22;52627;48.838;2.402;2022-08-20T13:52:51;29.85;31.97
65854;DHT22;52627;48.838;2.402;2022-08-20T13:55:22;29.71;32.22
65854;DHT22;52627;48.838;2.402;2022-08-20T13:57:53;29.64;32.58
65854;DHT22;52627;48.838;2.402;2022-08-20T14:00:24;29.49;32.82
65854;DHT22;52627;48.838;2.402;2022-08-20T14:02:58;29.32;33.07
65854;DHT22;52627;48.838;2.402;2022-08-20T14:05:28;29.24;33.33
65854;DHT22;52627;48.838;2.402;2022-08-20T14:08:05;29.18;33.53
65854;DHT22;52627;48.838;2.402;2022-08-20T14:10:35;29.10;33.67
65854;DHT22;52627;48.838;2.402;2022-08-20T14:13:04;29.02;33.75
65854;DHT22;52627;48.838;2.402;2022-08-20T14:15:34;28.94;33.91
65854;DHT22;52627;48.838;2.402;2022-08-20T14:18:03;28.84;34.01
65854;DHT22;52627;48.838;2.402;2022-08-20T14:20:31;28.78;34.09
65854;DHT22;52627;48.838;2.402;2022-08-20T14:23:05;28.77;34.16
65854;DHT22;52627;48.838;2.402;2022-08-20T14:25:33;28.76;34.36
65854;DHT22;52627;48.838;2.402;2022-08-20T14:28:35;28.78;34.47
65854;DHT22;52627;48.838;2.402;2022-08-20T14:30:55;28.77;34.50
65854;DHT22;52627;48.838;2.402;2022-08-20T14:33:23;28.79;34.52
65854;DHT22;52627;48.838;2.402;2022-08-20T14:35:50;28.80;34.59
65854;DHT22;52627;48.838;2.402;2022-08-20T14:38:19;28.69;34.63
65854;DHT22;52627;48.838;2.402;2022-08-20T14:40:47;28.53;34.62
65854;DHT22;52627;48.838;2.402;2022-08-20T14:43:16;28.38;34.70
65854;DHT22;52627;48.838;2.402;2022-08-20T14:45:44;28.22;34.81
65854;DHT22;52627;48.838;2.402;2022-08-20T14:48:12;28.16;34.93
65854;DHT22;52627;48.838;2.402;2022-08-20T14:50:40;28.17;35.07
65854;DHT22;52627;48.838;2.402;2022-08-20T14:53:08;28.19;35.18
65854;DHT22;52627;48.838;2.402;2022-08-20T14:55:36;28.20;35.25
65854;DHT22;52627;48.838;2.402;2022-08-20T14:58:05;28.23;35.22
65854;DHT22;52627;48.838;2.402;2022-08-20T15:00:37;28.23;35.27
65854;DHT22;52627;48.838;2.402;2022-08-20T15:03:06;28.22;35.19
65854;DHT22;52627;48.838;2.402;2022-08-20T15:05:33;28.22;35.20
65854;DHT22;52627;48.838;2.402;2022-08-20T15:08:06;28.24;35.15
65854;DHT22;52627;48.838;2.402;2022-08-20T15:10:36;28.26;35.12
65854;DHT22;52627;48.838;2.402;2022-08-20T15:13:05;28.34;35.21
65854;DHT22;52627;48.838;2.402;2022-08-20T15:15:34;28.39;35.20
65854;DHT22;52627;48.838;2.402;2022-08-20T15:18:01;28.43;35.22
65854;DHT22;52627;48.838;2.402;2022-08-20T15:20:30;28.41;35.20
65854;DHT22;52627;48.838;2.402;2022-08-20T15:23:01;28.42;35.23
65854;DHT22;52627;48.838;2.402;2022-08-20T15:25:31;28.42;35.19
65854;DHT22;52627;48.838;2.402;2022-08-20T15:28:04;28.46;35.28
65854;DHT22;52627;48.838;2.402;2022-08-20T15:30:36;28.53;35.23
65854;DHT22;52627;48.838;2.402;2022-08-20T15:33:07;28.55;35.07
65854;DHT22;52627;48.838;2.402;2022-08-20T15:35:36;28.40;34.76
65854;DHT22;52627;48.838;2.402;2022-08-20T15:38:04;28.31;34.88
65854;DHT22;52627;48.838;2.402;2022-08-20T15:40:31;28.24;34.86
65854;DHT22;52627;48.838;2.402;2022-08-20T15:43:00;28.28;34.99
65854;DHT22;52627;48.838;2.402;2022-08-20T15:45:30;28.31;35.02
65854;DHT22;52627;48.838;2.402;2022-08-20T15:59:49;28.46;34.92
65854;DHT22;52627;48.838;2.402;2022-08-20T16:11:50;28.50;34.61
65854;DHT22;52627;48.838;2.402;2022-08-20T16:14:32;28.47;34.63
65854;DHT22;52627;48.838;2.402;2022-08-20T16:22:28;28.39;34.61
65854;DHT22;52627;48.838;2.402;2022-08-20T16:24:57;28.36;34.59
65854;DHT22;52627;48.838;2.402;2022-08-20T16:28:27;28.34;34.58
65854;DHT22;52627;48.838;2.402;2022-08-20T16:30:33;28.32;34.49
65854;DHT22;52627;48.838;2.402;2022-08-20T16:33:15;28.29;34.46
65854;DHT22;52627;48.838;2.402;2022-08-20T16:36:46;28.23;34.38
65854;DHT22;52627;48.838;2.402;2022-08-20T16:39:33;28.19;34.40